Terminal Aerodrome Forecast
Issued by NWS Tampa Bay Area, FL

Home | Current Version | Previous Version | Text Only | Print | Product List | Glossary On
Versions: 1 2 3 4 5 6 7 8 9 10 11 12 13 14
000
FTUS42 KTBW 211130
TAFFMY
TAF
KFMY 211130Z 2112/2212 08005KT P6SM SCT050 BKN250
     FM211400 11008KT P6SM FEW040 BKN250
     FM212000 17008KT P6SM SCT050 BKN250
     FM220300 14006KT P6SM SCT035 BKN250
     FM220900 13004KT P6SM VCTS SCT035CB BKN120=

USA.gov is the U.S. government's official web portal to all federal, state and local government web resources and services.